createdAt,value
2022-11-21T00:03:32.594Z,-2.78
2022-11-21T00:08:35.669Z,-2.77
2022-11-21T00:13:38.129Z,-2.69
2022-11-21T00:18:40.317Z,-2.68
2022-11-21T00:23:44.193Z,-2.66
2022-11-21T00:28:45.940Z,-2.56
2022-11-21T00:33:47.809Z,-2.47
2022-11-21T00:38:51.576Z,-2.45
2022-11-21T00:43:53.332Z,-2.39
2022-11-21T00:48:55.408Z,-2.35
2022-11-21T00:53:59.023Z,-2.25
2022-11-21T00:59:01.060Z,-2.18
2022-11-21T01:04:02.776Z,-2.20
2022-11-21T01:09:05.986Z,-2.24
2022-11-21T01:14:08.226Z,-2.22
2022-11-21T01:19:10.509Z,-2.28
2022-11-21T01:24:14.284Z,-2.28
2022-11-21T01:29:17.431Z,-2.33
2022-11-21T01:34:19.594Z,-2.34
2022-11-21T01:39:23.314Z,-2.29
2022-11-21T01:44:28.028Z,-2.33
2022-11-21T01:49:33.212Z,-2.32
2022-11-21T01:54:40.237Z,-2.37
2022-11-21T01:59:47.920Z,-2.24
2022-11-21T02:04:52.088Z,-2.18
2022-11-21T02:09:59.551Z,-2.23
2022-11-21T02:15:02.316Z,-2.19
2022-11-21T02:20:07.147Z,-2.20
2022-11-21T02:25:14.127Z,-2.22
2022-11-21T02:30:17.379Z,-2.18
2022-11-21T02:35:20.335Z,-2.22
2022-11-21T02:40:28.386Z,-2.17
2022-11-21T02:45:36.031Z,-2.13
2022-11-21T02:50:39.795Z,-2.11
2022-11-21T02:55:44.142Z,-2.04
2022-11-21T03:00:46.199Z,-2.00
2022-11-21T03:05:48.185Z,-2.00
2022-11-21T03:10:51.444Z,-1.99
2022-11-21T03:15:53.170Z,-1.97
2022-11-21T03:20:54.963Z,-1.88
2022-11-21T03:25:59.120Z,-1.98
2022-11-21T03:31:01.243Z,-1.97
2022-11-21T03:36:03.428Z,-1.90
2022-11-21T03:41:07.574Z,-1.97
2022-11-21T03:46:09.682Z,-1.95
2022-11-21T03:51:11.866Z,-1.99
2022-11-21T03:56:15.712Z,-2.01
2022-11-21T04:01:18.529Z,-1.99
2022-11-21T04:06:22.481Z,-1.81
2022-11-21T04:11:26.102Z,-1.85
2022-11-21T04:16:28.359Z,-1.77
2022-11-21T04:21:30.358Z,-1.77
2022-11-21T04:26:33.587Z,-1.86
2022-11-21T04:31:35.648Z,-1.84
2022-11-21T04:36:37.974Z,-1.81
2022-11-21T04:41:41.230Z,-1.91
2022-11-21T04:46:43.129Z,-2.03
2022-11-21T04:51:44.985Z,-2.04
2022-11-21T04:56:48.668Z,-2.02
2022-11-21T05:01:50.793Z,-2.11
2022-11-21T05:06:52.985Z,-2.26
2022-11-21T05:11:56.027Z,-2.38
2022-11-21T05:16:58.234Z,-2.46
2022-11-21T05:22:00.405Z,-2.63
2022-11-21T05:27:04.144Z,-2.56
2022-11-21T05:32:06.354Z,-2.41
2022-11-21T05:37:08.355Z,-2.28
2022-11-21T05:42:11.922Z,-2.16
2022-11-21T05:47:14.989Z,-2.15
2022-11-21T05:52:17.158Z,-1.98
2022-11-21T05:57:21.024Z,-1.91
2022-11-21T06:02:23.082Z,-1.85
2022-11-21T06:07:24.931Z,-1.77
2022-11-21T06:12:28.439Z,-1.80
2022-11-21T06:17:30.550Z,-1.76
2022-11-21T06:22:32.631Z,-1.76
2022-11-21T06:27:35.763Z,-1.65
2022-11-21T06:32:38.567Z,-1.63
2022-11-21T06:37:40.833Z,-1.60
2022-11-21T06:42:43.981Z,-1.54
2022-11-21T06:47:46.213Z,-1.48
2022-11-21T06:52:47.947Z,-1.45
2022-11-21T06:57:51.838Z,-1.39
2022-11-21T07:02:56.552Z,-1.32
2022-11-21T07:08:03.090Z,-1.34
2022-11-21T07:13:06.129Z,-1.25
2022-11-21T07:18:07.825Z,-1.22
2022-11-21T07:23:09.458Z,-1.12
2022-11-21T07:28:12.930Z,-0.92
2022-11-21T07:33:15.071Z,-0.90
2022-11-21T07:38:17.061Z,-0.81
2022-11-21T07:43:20.632Z,-0.70
2022-11-21T07:48:22.549Z,-0.95
2022-11-21T07:53:24.607Z,-1.15
2022-11-21T07:58:27.930Z,-1.42
2022-11-21T08:03:30.255Z,-1.67
2022-11-21T08:08:32.435Z,-1.54
2022-11-21T08:13:36.156Z,-1.27
2022-11-21T08:18:38.460Z,-1.32
2022-11-21T08:23:40.412Z,-1.49
2022-11-21T08:28:44.206Z,-1.32
2022-11-21T08:33:46.306Z,-1.30
2022-11-21T08:38:48.315Z,-1.15
2022-11-21T08:43:51.721Z,-1.13
2022-11-21T08:48:53.924Z,-1.01
2022-11-21T08:53:56.077Z,-1.33
2022-11-21T08:58:59.533Z,-1.30
2022-11-21T09:04:01.674Z,-1.46
2022-11-21T09:09:05.705Z,-1.54
2022-11-21T09:14:09.200Z,-1.58
2022-11-21T09:19:11.504Z,-1.57
2022-11-21T09:24:13.532Z,-1.53
2022-11-21T09:29:17.010Z,-1.54
2022-11-21T09:34:19.143Z,-1.79
2022-11-21T09:39:21.236Z,-1.79
2022-11-21T09:44:47.302Z,-1.54
2022-11-21T09:49:55.914Z,-1.49
2022-11-21T09:55:02.752Z,-1.44
2022-11-21T10:00:16.224Z,-1.46
2022-11-21T10:05:23.640Z,-1.63
2022-11-21T10:10:38.632Z,-1.48
2022-11-21T10:15:57.187Z,-1.03
2022-11-21T10:21:09.414Z,-1.24
2022-11-21T10:26:23.213Z,-1.15
2022-11-21T10:31:29.512Z,-1.14
2022-11-21T10:36:36.563Z,-1.10
2022-11-21T10:41:45.054Z,-0.80
2022-11-21T10:46:56.490Z,-0.66
2022-11-21T10:52:05.909Z,-0.54
2022-11-21T10:57:13.420Z,-0.59
2022-11-21T11:02:25.453Z,-0.42
2022-11-21T11:07:29.007Z,-0.43
2022-11-21T11:12:32.029Z,-0.29
2022-11-21T11:17:35.221Z,-0.27
2022-11-21T11:22:36.847Z,-0.35
2022-11-21T11:27:38.516Z,-0.30
2022-11-21T11:32:42.048Z,-0.25
2022-11-21T11:37:52.529Z,-0.41
2022-11-21T11:43:12.308Z,-0.38
2022-11-21T11:48:17.606Z,-0.62
2022-11-21T11:53:21.463Z,-0.37
2022-11-21T11:58:36.798Z,-0.50
2022-11-21T12:03:52.035Z,-0.43
2022-11-21T12:09:02.823Z,-0.17
2022-11-21T12:14:15.112Z,-0.06
2022-11-21T12:19:19.488Z,0.06
2022-11-21T12:24:21.738Z,-0.13
2022-11-21T12:29:47.136Z,0.06
2022-11-21T12:35:16.065Z,-0.05
2022-11-21T12:40:35.640Z,-0.02
2022-11-21T12:45:39.921Z,0.07
2022-11-21T12:50:50.853Z,-0.05
2022-11-21T12:56:00.603Z,-0.17
2022-11-21T13:01:21.177Z,-0.21
2022-11-21T13:06:27.836Z,-0.21
2022-11-21T13:11:38.485Z,-0.47
2022-11-21T13:16:45.266Z,-0.48
2022-11-21T13:21:49.827Z,-0.41
2022-11-21T13:26:54.331Z,-0.18
2022-11-21T13:31:56.030Z,-0.39
2022-11-21T13:36:59.703Z,-0.25
2022-11-21T13:42:17.154Z,-0.36
2022-11-21T13:48:00.648Z,-0.30
2022-11-21T13:53:22.268Z,-0.26
2022-11-21T13:58:37.964Z,-0.18
2022-11-21T14:04:06.244Z,-0.29
2022-11-21T14:09:34.010Z,-0.37
2022-11-21T14:14:39.759Z,-0.47
2022-11-21T14:19:42.715Z,-0.45
2022-11-21T14:24:47.208Z,-0.47
2022-11-21T14:29:49.439Z,-0.61
2022-11-21T14:34:51.698Z,-0.65
2022-11-21T14:39:57.094Z,-0.73
2022-11-21T14:45:07.528Z,-0.68
2022-11-21T14:50:26.162Z,-0.84
2022-11-21T14:55:32.248Z,-1.00
2022-11-21T15:06:05.161Z,-1.41
2022-11-21T15:11:10.411Z,-1.58
2022-11-21T15:16:13.414Z,-1.76
2022-11-21T15:21:16.280Z,-1.92
2022-11-21T15:26:32.334Z,-1.97
2022-11-21T15:31:34.837Z,-2.13
2022-11-21T15:36:37.081Z,-2.28
2022-11-21T15:41:40.565Z,-2.41
2022-11-21T15:46:42.529Z,-2.57
2022-11-21T15:52:06.503Z,-2.62
2022-11-21T15:57:16.468Z,-2.72
2022-11-21T16:02:19.612Z,-2.80
2022-11-21T16:07:22.455Z,-2.82
2022-11-21T16:12:26.776Z,-2.92
2022-11-21T16:17:28.888Z,-3.00
2022-11-21T16:22:32.174Z,-3.00
2022-11-21T16:27:35.922Z,-2.97
2022-11-21T16:32:38.168Z,-2.92
2022-11-21T16:37:40.490Z,-2.97
2022-11-21T16:42:44.234Z,-3.04
2022-11-21T16:47:48.906Z,-2.98
2022-11-21T16:52:51.148Z,-2.86
2022-11-21T16:57:55.102Z,-2.68
2022-11-21T17:02:57.383Z,-2.56
2022-11-21T17:07:59.624Z,-2.46
2022-11-21T17:13:03.450Z,-2.41
2022-11-21T17:18:05.627Z,-2.33
2022-11-21T17:23:07.897Z,-2.29
2022-11-21T17:28:11.499Z,-2.30
2022-11-21T17:33:14.800Z,-2.30
2022-11-21T17:38:17.383Z,-2.26
2022-11-21T17:43:21.320Z,-2.30
2022-11-21T17:48:24.362Z,-2.25
2022-11-21T17:53:26.873Z,-2.25
2022-11-21T17:58:31.371Z,-2.31
2022-11-21T18:03:34.015Z,-2.33
2022-11-21T18:08:37.009Z,-2.23
2022-11-21T18:13:41.276Z,-2.16
2022-11-21T18:18:43.485Z,-2.14
2022-11-21T18:23:47.188Z,-2.12
2022-11-21T18:29:07.232Z,-2.09
2022-11-21T18:34:14.818Z,-1.50
2022-11-21T18:39:16.803Z,-1.25
2022-11-21T18:44:22.565Z,-0.74
2022-11-21T18:49:24.577Z,-0.70
2022-11-21T18:54:26.626Z,-0.70
2022-11-21T18:59:30.465Z,-0.81
2022-11-21T19:04:32.921Z,-1.13
2022-11-21T19:09:35.438Z,-1.13
2022-11-21T19:14:39.380Z,-0.85
2022-11-21T19:19:41.240Z,-0.84
2022-11-21T19:24:43.437Z,-0.99
2022-11-21T19:29:47.061Z,-1.18
2022-11-21T19:34:48.881Z,-0.95
2022-11-21T19:39:50.637Z,-1.25
2022-11-21T19:44:53.936Z,-1.22
2022-11-21T19:49:55.881Z,-1.08
2022-11-21T19:54:57.922Z,-1.09
2022-11-21T20:00:01.306Z,-0.89
2022-11-21T20:05:03.855Z,-0.90
2022-11-21T20:10:06.717Z,-0.76
2022-11-21T20:15:11.044Z,-0.83
2022-11-21T20:20:12.982Z,-0.83
2022-11-21T20:25:15.250Z,-0.88
2022-11-21T20:30:18.643Z,-0.80
2022-11-21T20:35:20.430Z,-0.92
2022-11-21T20:40:22.471Z,-0.98
2022-11-21T20:51:59.589Z,-0.92
2022-11-21T20:56:16.118Z,-0.80
2022-11-21T21:01:21.050Z,-0.82
2022-11-21T21:06:27.398Z,-0.71
2022-11-21T21:11:51.000Z,-0.63
2022-11-21T21:16:53.912Z,-0.60
2022-11-21T21:21:56.051Z,-0.64
2022-11-21T21:26:58.265Z,-0.64
2022-11-21T21:32:01.918Z,-0.66
2022-11-21T21:37:04.010Z,-0.60
2022-11-21T21:42:06.356Z,-0.67
2022-11-21T21:47:09.427Z,-0.61
2022-11-21T21:52:11.561Z,-0.69
2022-11-21T21:57:13.258Z,-0.67
2022-11-21T22:02:16.557Z,-0.68
2022-11-21T22:07:18.476Z,-0.67
2022-11-21T22:12:20.419Z,-0.73
2022-11-21T22:17:23.772Z,-0.67
2022-11-21T22:22:25.479Z,-0.73
2022-11-21T22:27:27.623Z,-0.74
2022-11-21T22:32:31.224Z,-0.77
2022-11-21T22:37:33.346Z,-0.85
2022-11-21T22:42:35.482Z,-0.93
2022-11-21T22:47:41.371Z,-1.02
2022-11-21T22:52:47.314Z,-1.23
2022-11-21T22:57:49.203Z,-1.34
2022-11-21T23:02:52.778Z,-1.47
2022-11-21T23:07:54.855Z,-1.46
2022-11-21T23:12:56.754Z,-1.42
2022-11-21T23:18:00.478Z,-1.33
2022-11-21T23:23:02.638Z,-1.32
2022-11-21T23:28:04.759Z,-1.34
2022-11-21T23:33:07.798Z,-1.24
2022-11-21T23:38:09.595Z,-1.22
2022-11-21T23:43:11.584Z,-1.33
2022-11-21T23:48:14.668Z,-1.45
2022-11-21T23:53:16.469Z,-1.50
2022-11-21T23:58:18.413Z,-1.66
